Terminal Aerodrome Forecast
Issued by NWS Jackson, MS

Home | Current Version | Previous Version | Text Only | Print | Product List | Glossary On
Versions: 1 2 3 4 5 6 7 8 9 10 11 12 13 14 15 16
000
FTUS44 KJAN 272051 AAC
TAFJAN
TAF AMD
KJAN 272051Z 2721/2818 22011KT P6SM BKN013
     FM272210 19007KT P6SM -SHRA SCT015 OVC027
     FM280000 19005KT P6SM SCT030 OVC050
     FM280800 19005KT 5SM BR VCSH FEW005 SCT015 BKN035
     FM281500 23009KT 6SM -TSRA SCT010 BKN020 BKN030CB=

USA.gov is the U.S. government's official web portal to all federal, state and local government web resources and services.